Time;durP1;ratioP1;P1;durP2;ratioP2;P2;SDS_P1;SDS_P2;PMS_P1;PMS_P2;Temp;Humidity;BMP_temperature;BMP_pressure;BME280_temperature;BME280_humidity;BME280_pressure;Samples;Min_cycle;Max_cycle;Signal;HPM_P1;HPM_P2
2022/10/11 00:00:58;;;;;;;13.32;7.18;;;;;;;14.31;64.76;100325.88;4512869;31;34164;-77
2022/10/11 00:03:25;;;;;;;10.68;6.62;;;;;;;13.83;66.33;100325.69;4511722;31;34637;-77
2022/10/11 00:05:53;;;;;;;9.93;6.30;;;;;;;13.71;66.83;100327.72;4513417;31;33860;-77
2022/10/11 00:08:21;;;;;;;9.65;5.82;;;;;;;13.95;65.96;100334.56;4513077;31;34921;-77
2022/10/11 00:10:59;;;;;;;9.35;5.85;;;;;;;13.98;65.87;100333.22;4511828;31;34938;-76
2022/10/11 00:13:27;;;;;;;9.82;5.97;;;;;;;13.72;66.81;100329.38;4492914;31;33913;-76
2022/10/11 00:15:55;;;;;;;9.52;5.75;;;;;;;13.66;66.79;100330.41;4496065;32;33188;-77
2022/10/11 00:18:23;;;;;;;8.18;5.50;;;;;;;13.81;66.25;100327.84;4495816;32;33246;-76
2022/10/11 00:21:07;;;;;;;7.30;5.12;;;;;;;13.78;66.62;100324.78;4527709;31;26491;-76
2022/10/11 00:23:48;;;;;;;9.25;5.95;;;;;;;13.93;65.92;100331.25;4528067;31;29603;-77
2022/10/11 00:26:29;;;;;;;8.27;6.12;;;;;;;14.48;64.05;100321.09;4526862;31;73861;-76
2022/10/11 00:29:11;;;;;;;9.88;5.85;;;;;;;14.21;64.67;100320.31;4517228;31;28868;-77
2022/10/11 00:31:54;;;;;;;8.93;5.43;;;;;;;14.41;63.73;100314.25;4527305;31;30014;-77
2022/10/11 00:34:34;;;;;;;8.75;5.55;;;;;;;14.14;64.18;100331.44;4526650;31;81159;-76
2022/10/11 00:37:16;;;;;;;8.45;5.28;;;;;;;14.15;64.35;100319.47;4525878;31;75339;-77
2022/10/11 00:39:57;;;;;;;7.60;4.70;;;;;;;14.25;64.00;100322.25;4526780;31;71161;-76
2022/10/11 00:42:40;;;;;;;6.45;4.65;;;;;;;13.94;64.54;100312.97;4527705;31;37834;-77
2022/10/11 00:45:26;;;;;;;7.37;5.22;;;;;;;13.61;65.76;100314.81;4526569;31;80416;-77
2022/10/11 00:48:13;;;;;;;8.13;5.07;;;;;;;13.28;66.26;100311.16;4526725;31;76456;-76
2022/10/11 00:50:57;;;;;;;6.97;5.20;;;;;;;13.08;67.62;100314.38;4524903;31;80800;-75
2022/10/11 00:53:37;;;;;;;9.55;6.00;;;;;;;13.03;67.39;100308.84;4526370;31;88887;-76
2022/10/11 00:56:30;;;;;;;10.15;5.55;;;;;;;13.20;66.82;100303.38;4526464;31;80558;-76
2022/10/11 00:59:13;;;;;;;9.60;5.07;;;;;;;13.68;65.30;100306.44;4527703;31;28202;-76
2022/10/11 01:01:52;;;;;;;7.97;4.95;;;;;;;13.68;65.11;100309.97;4527532;31;33460;-76
2022/10/11 01:04:33;;;;;;;8.00;5.45;;;;;;;13.33;65.98;100305.75;4525493;31;79635;-76
2022/10/11 01:07:16;;;;;;;7.80;5.30;;;;;;;13.52;65.62;100302.72;4526949;31;75311;-76
2022/10/11 01:09:58;;;;;;;7.12;4.80;;;;;;;13.14;66.41;100307.91;4526499;31;82709;-77
2022/10/11 01:13:10;;;;;;;8.98;5.90;;;;;;;13.24;66.71;100312.69;4525759;31;81857;-77
2022/10/11 01:16:33;;;;;;;9.10;5.20;;;;;;;13.03;66.96;100311.59;4527782;31;29987;-76
2022/10/11 01:19:37;;;;;;;7.12;4.70;;;;;;;13.15;66.77;100311.47;4526400;31;79083;-77
2022/10/11 01:22:46;;;;;;;7.57;5.18;;;;;;;12.85;67.25;100306.41;4526409;31;82523;-76
2022/10/11 01:25:50;;;;;;;6.62;4.53;;;;;;;13.63;64.61;100303.62;4525957;31;73825;-76
2022/10/11 01:28:46;;;;;;;7.07;5.07;;;;;;;13.73;63.91;100301.03;4515807;31;30111;-76
2022/10/11 01:31:39;;;;;;;7.32;4.87;;;;;;;13.78;63.68;100297.53;4526507;31;78946;-76
2022/10/11 01:34:42;;;;;;;10.20;4.65;;;;;;;13.42;64.34;100299.84;4528486;31;27730;-76
2022/10/11 01:37:31;;;;;;;7.28;4.80;;;;;;;13.01;66.09;100300.12;4513043;31;81156;-76
2022/10/11 01:40:24;;;;;;;7.35;5.50;;;;;;;12.90;66.29;100292.88;4525115;31;123873;-75
2022/10/11 01:43:05;;;;;;;7.50;5.03;;;;;;;12.82;66.89;100293.31;4526746;31;74428;-76
2022/10/11 01:45:48;;;;;;;7.30;4.85;;;;;;;12.50;67.49;100293.91;4526641;31;79423;-76
2022/10/11 01:48:27;;;;;;;7.40;4.78;;;;;;;12.26;68.92;100279.66;4527512;31;31670;-75
2022/10/11 01:51:08;;;;;;;8.05;5.10;;;;;;;12.21;68.65;100290.47;4525803;31;81276;-75
2022/10/11 01:54:06;;;;;;;7.07;4.80;;;;;;;12.75;67.16;100289.94;4526754;31;75196;-77
2022/10/11 01:57:09;;;;;;;6.87;5.05;;;;;;;12.48;67.62;100294.19;4526340;31;30107;-76
2022/10/11 02:00:02;;;;;;;8.30;4.95;;;;;;;13.01;66.32;100286.50;4527948;31;28611;-76
2022/10/11 02:03:16;;;;;;;8.52;5.10;;;;;;;12.69;67.21;100294.47;4526199;31;91815;-74
2022/10/11 02:06:04;;;;;;;8.73;5.03;;;;;;;12.56;67.31;100286.66;4488469;31;778054;-76
2022/10/11 02:08:56;;;;;;;8.23;5.45;;;;;;;12.45;67.61;100289.22;4526500;31;79986;-76
2022/10/11 02:11:37;;;;;;;6.90;4.95;;;;;;;12.13;68.22;100285.41;4527427;31;29712;-76
2022/10/11 02:14:22;;;;;;;7.53;4.82;;;;;;;12.61;67.18;100290.28;4526502;31;80927;-76
2022/10/11 02:17:06;;;;;;;8.35;5.43;;;;;;;12.40;67.57;100280.16;4527994;31;31891;-76
2022/10/11 02:19:50;;;;;;;8.27;5.40;;;;;;;12.81;66.21;100287.03;4526755;31;77722;-76
2022/10/11 02:22:36;;;;;;;9.45;5.62;;;;;;;12.31;67.28;100279.75;4526195;31;87990;-76
2022/10/11 02:25:23;;;;;;;8.07;5.70;;;;;;;12.92;65.66;100288.81;4523740;31;77593;-76
2022/10/11 02:28:09;;;;;;;6.80;4.85;;;;;;;12.62;66.14;100289.22;4510949;31;78886;-76
2022/10/11 02:30:51;;;;;;;11.55;6.87;;;;;;;12.83;65.68;100289.50;4525637;31;77408;-76
2022/10/11 02:33:42;;;;;;;13.05;7.30;;;;;;;12.47;66.55;100295.22;4526428;31;80841;-76
2022/10/11 02:36:39;;;;;;;12.35;7.50;;;;;;;11.96;68.60;100294.37;4526579;31;80762;-76
2022/10/11 02:39:38;;;;;;;17.02;9.65;;;;;;;12.78;65.97;100292.97;4527653;31;32565;-76
2022/10/11 02:42:27;;;;;;;23.15;11.95;;;;;;;12.39;66.71;100286.66;4524947;31;124804;-77
2022/10/11 02:45:12;;;;;;;24.50;12.77;;;;;;;12.49;66.82;100295.81;4516801;31;78774;-76
2022/10/11 02:47:52;;;;;;;22.08;12.32;;;;;;;12.16;67.71;100296.62;4527913;31;29869;-76
2022/10/11 02:50:36;;;;;;;21.40;11.27;;;;;;;12.25;67.76;100295.16;4525045;31;78433;-76
2022/10/11 02:53:15;;;;;;;23.30;11.95;;;;;;;12.05;68.30;100294.78;4526374;31;78619;-75
2022/10/11 02:55:55;;;;;;;21.25;11.55;;;;;;;12.00;68.86;100297.44;4526960;31;74959;-75
2022/10/11 02:58:36;;;;;;;20.45;11.12;;;;;;;12.21;68.10;100298.47;4515284;31;76064;-76
2022/10/11 03:01:15;;;;;;;22.17;10.35;;;;;;;11.92;68.71;100298.63;4526575;31;78857;-76
2022/10/11 03:03:56;;;;;;;18.17;9.98;;;;;;;12.23;68.06;100301.91;4527978;31;30957;-77
2022/10/11 03:06:37;;;;;;;17.85;9.50;;;;;;;12.55;66.19;100288.56;4526271;31;82281;-76
2022/10/11 03:09:21;;;;;;;22.70;11.95;;;;;;;12.18;67.07;100293.66;4526644;31;78090;-76
2022/10/11 03:12:01;;;;;;;25.65;11.65;;;;;;;12.17;67.52;100300.19;4525788;31;77727;-71
2022/10/11 03:14:42;;;;;;;28.05;12.88;;;;;;;11.86;68.19;100292.25;4526643;31;79175;-73
2022/10/11 03:17:26;;;;;;;27.42;13.75;;;;;;;11.76;69.16;100294.78;4526976;31;77808;-72
2022/10/11 03:20:23;;;;;;;31.40;14.25;;;;;;;12.09;68.21;100291.34;4526603;31;78849;-72
2022/10/11 03:23:05;;;;;;;34.40;17.62;;;;;;;12.48;66.47;100293.31;4526528;31;79528;-72
2022/10/11 03:25:46;;;;;;;37.88;18.85;;;;;;;12.17;67.19;100292.00;4521142;31;29237;-71
2022/10/11 03:28:29;;;;;;;39.67;19.33;;;;;;;12.59;66.11;100300.59;4526562;31;76483;-73
2022/10/11 03:31:11;;;;;;;44.50;21.25;;;;;;;12.24;66.90;100300.84;4526628;31;79013;-72
2022/10/11 03:33:52;;;;;;;45.97;20.70;;;;;;;12.70;65.62;100307.03;4526468;31;82657;-73
2022/10/11 03:36:35;;;;;;;52.92;23.02;;;;;;;12.34;66.46;100306.44;4527854;31;32178;-71
2022/10/11 03:39:18;;;;;;;48.35;23.87;;;;;;;12.08;67.73;100305.19;4526390;31;85204;-72
2022/10/11 03:42:01;;;;;;;49.60;24.17;;;;;;;11.72;69.11;100306.41;4525341;31;79440;-71
2022/10/11 03:44:40;;;;;;;49.28;22.73;;;;;;;11.48;70.25;100312.72;4522669;31;198791;-73
2022/10/11 03:47:23;;;;;;;45.47;22.62;;;;;;;12.04;68.70;100318.44;4519842;31;74045;-72
2022/10/11 03:50:07;;;;;;;47.83;22.25;;;;;;;11.65;69.50;100312.78;4526689;31;80178;-70
2022/10/11 03:52:50;;;;;;;42.00;20.92;;;;;;;12.49;67.51;100314.03;4526470;31;81238;-72
2022/10/11 03:55:30;;;;;;;32.97;17.42;;;;;;;12.68;66.90;100322.78;4526431;31;81328;-73
2022/10/11 03:58:12;;;;;;;33.40;17.77;;;;;;;12.38;67.63;100325.84;4526750;31;81636;-72
2022/10/11 04:00:54;;;;;;;34.08;17.48;;;;;;;12.30;68.66;100321.63;4522920;31;77686;-74
2022/10/11 04:03:37;;;;;;;27.55;15.30;;;;;;;12.00;69.41;100322.72;4518107;31;27969;-72
2022/10/11 04:06:16;;;;;;;26.55;14.20;;;;;;;12.61;67.78;100324.84;4523053;31;171187;-73
2022/10/11 04:08:57;;;;;;;23.98;14.35;;;;;;;12.34;68.57;100330.12;4525610;31;83035;-72
2022/10/11 04:11:37;;;;;;;27.30;14.57;;;;;;;12.13;69.23;100329.75;4526027;31;77339;-71
2022/10/11 04:14:20;;;;;;;25.70;13.80;;;;;;;12.34;69.17;100327.41;4526169;31;87828;-72
2022/10/11 04:16:59;;;;;;;24.23;13.52;;;;;;;12.92;66.83;100321.50;4516851;31;82700;-71
2022/10/11 04:19:41;;;;;;;23.58;13.85;;;;;;;12.72;67.51;100324.75;4518590;31;79489;-71
2022/10/11 04:22:23;;;;;;;20.92;11.85;;;;;;;12.84;67.11;100330.09;4517144;31;80280;-70
2022/10/11 04:25:06;;;;;;;18.23;10.82;;;;;;;12.56;67.72;100331.03;4510148;31;82233;-71
2022/10/11 04:27:46;;;;;;;21.42;11.73;;;;;;;12.92;66.62;100323.41;4516217;31;82748;-71
2022/10/11 04:30:27;;;;;;;14.27;9.57;;;;;;;12.63;67.22;100326.22;4519417;31;76434;-72
2022/10/11 04:33:06;;;;;;;15.15;8.95;;;;;;;12.52;67.82;100325.25;4514095;31;78250;-72
2022/10/11 04:35:47;;;;;;;14.95;8.90;;;;;;;12.22;68.81;100327.47;4518521;31;80215;-71
2022/10/11 04:38:28;;;;;;;14.05;9.02;;;;;;;12.21;69.07;100323.09;4517835;31;75698;-70
2022/10/11 04:41:12;;;;;;;13.60;8.75;;;;;;;12.35;68.67;100315.44;4514805;31;86162;-71
2022/10/11 04:43:52;;;;;;;13.90;9.02;;;;;;;12.56;68.03;100319.31;4513871;31;27679;-72
2022/10/11 04:46:33;;;;;;;13.15;8.45;;;;;;;12.28;68.76;100323.75;4514997;31;120114;-72
2022/10/11 04:49:16;;;;;;;14.27;8.40;;;;;;;12.43;68.23;100321.28;4526749;31;73434;-72
2022/10/11 04:51:55;;;;;;;11.65;8.02;;;;;;;11.99;69.92;100312.94;4526732;31;73535;-72
2022/10/11 04:54:38;;;;;;;12.05;7.70;;;;;;;12.61;68.30;100319.38;4526630;31;76224;-71
2022/10/11 04:57:21;;;;;;;13.75;8.55;;;;;;;12.28;69.00;100327.28;4527689;31;36585;-73
2022/10/11 05:00:04;;;;;;;11.45;7.47;;;;;;;12.51;68.75;100330.94;4526609;31;77625;-72
2022/10/11 05:02:47;;;;;;;14.43;8.98;;;;;;;12.19;69.46;100328.78;4527550;31;32540;-72
2022/10/11 05:05:27;;;;;;;13.68;8.45;;;;;;;11.96;70.76;100326.19;4526635;31;80514;-72
2022/10/11 05:08:07;;;;;;;13.65;8.30;;;;;;;12.97;67.33;100328.09;4526382;31;74237;-70
2022/10/11 05:10:56;;;;;;;13.62;8.45;;;;;;;12.66;67.99;100325.75;4524595;31;74753;-70
2022/10/11 05:13:36;;;;;;;14.20;8.75;;;;;;;12.77;68.26;100331.34;4525923;31;81978;-72
2022/10/11 05:16:17;;;;;;;14.15;8.63;;;;;;;12.41;69.09;100336.22;4526673;31;74070;-71
2022/10/11 05:19:00;;;;;;;14.18;8.63;;;;;;;12.70;69.14;100334.25;4526328;31;78678;-69
2022/10/11 05:21:43;;;;;;;14.10;8.55;;;;;;;12.54;69.62;100335.06;4525961;31;82009;-70
2022/10/11 05:24:25;;;;;;;12.45;7.97;;;;;;;12.59;69.95;100338.72;4515544;31;76726;-70
2022/10/11 05:27:05;;;;;;;14.63;8.80;;;;;;;12.97;68.75;100342.53;4492854;31;88222;-70
2022/10/11 05:29:46;;;;;;;13.30;8.30;;;;;;;12.68;69.43;100337.22;4525925;31;85698;-70
2022/10/11 05:32:27;;;;;;;19.17;11.30;;;;;;;12.88;69.51;100344.88;4525886;31;86670;-71
2022/10/11 05:35:10;;;;;;;16.45;9.13;;;;;;;12.49;70.30;100346.69;4527585;31;31477;-71
2022/10/11 05:37:49;;;;;;;13.68;8.45;;;;;;;12.37;71.14;100345.94;4526617;31;75549;-70
2022/10/11 05:40:30;;;;;;;15.30;9.00;;;;;;;12.29;72.50;100353.44;4526253;31;79066;-71
2022/10/11 05:43:11;;;;;;;19.92;9.45;;;;;;;12.08;73.19;100354.97;4526187;31;79962;-73
2022/10/11 05:45:53;;;;;;;13.15;8.15;;;;;;;12.73;71.74;100358.25;4526564;31;74459;-72
2022/10/11 05:48:35;;;;;;;13.52;8.05;;;;;;;12.50;72.32;100365.53;4525226;31;120496;-71
2022/10/11 05:51:18;;;;;;;13.30;8.40;;;;;;;12.75;71.57;100369.72;4526402;31;74796;-74
2022/10/11 05:53:57;;;;;;;14.25;8.38;;;;;;;13.18;70.64;100368.19;4526965;31;29342;-72
2022/10/11 05:56:37;;;;;;;11.10;7.70;;;;;;;12.88;71.24;100369.37;4527696;31;29611;-77
2022/10/11 05:59:18;;;;;;;13.85;8.55;;;;;;;12.95;71.66;100368.38;4526522;31;80195;-79
2022/10/11 06:01:57;;;;;;;12.45;7.40;;;;;;;13.02;71.42;100375.28;4524283;31;31831;-71
2022/10/11 06:04:36;;;;;;;11.27;7.50;;;;;;;12.90;71.97;100380.84;4526235;31;79031;-69
2022/10/11 06:07:18;;;;;;;12.30;7.90;;;;;;;12.60;74.18;100386.63;4525569;31;87730;-68
2022/10/11 06:09:59;;;;;;;11.50;7.43;;;;;;;13.52;69.41;100379.87;4525052;31;87260;-71
2022/10/11 06:12:42;;;;;;;10.65;7.28;;;;;;;13.16;70.41;100383.97;4526370;31;84705;-71
2022/10/11 06:15:23;;;;;;;13.73;7.95;;;;;;;13.77;68.20;100380.44;4524282;31;77363;-74
2022/10/11 06:18:04;;;;;;;13.45;7.93;;;;;;;13.59;69.83;100387.03;4525252;31;100340;-70
2022/10/11 06:20:46;;;;;;;13.30;7.60;;;;;;;13.29;70.55;100386.34;4526100;31;79539;-74
2022/10/11 06:23:25;;;;;;;11.70;7.28;;;;;;;13.17;71.35;100382.87;4517500;31;27655;-72
2022/10/11 06:26:07;;;;;;;13.30;8.05;;;;;;;13.64;69.75;100392.53;4526320;31;90228;-74
2022/10/11 06:28:51;;;;;;;10.75;7.65;;;;;;;14.33;66.69;100394.69;4526372;31;78524;-79
2022/10/11 06:31:31;;;;;;;14.00;8.02;;;;;;;14.73;64.55;100388.00;4526770;31;44231;-76
2022/10/11 06:34:14;;;;;;;10.93;7.82;;;;;;;14.27;65.78;100399.25;4525994;31;79044;-74
2022/10/11 06:36:57;;;;;;;13.85;8.07;;;;;;;14.09;69.73;100396.91;4526681;31;84721;-75
2022/10/11 06:39:37;;;;;;;12.80;7.93;;;;;;;13.77;70.24;100391.34;4528026;31;29925;-76
2022/10/11 06:42:17;;;;;;;9.90;6.90;;;;;;;14.90;66.95;100396.03;4527353;31;41785;-72
2022/10/11 06:44:58;;;;;;;13.30;7.82;;;;;;;14.68;67.15;100393.37;4527775;31;33879;-72
2022/10/11 06:47:39;;;;;;;11.52;8.07;;;;;;;14.06;68.62;100394.66;4526339;31;81352;-71
2022/10/11 06:50:21;;;;;;;12.85;7.97;;;;;;;14.52;67.61;100395.97;4524681;31;136146;-71
2022/10/11 06:53:23;;;;;;;11.73;7.53;;;;;;;15.85;62.55;100403.44;4515874;31;89529;-71
2022/10/11 06:56:07;;;;;;;11.45;7.40;;;;;;;15.54;62.37;100404.09;4526204;31;88068;-73
2022/10/11 06:58:50;;;;;;;11.48;6.93;;;;;;;16.06;60.56;100404.34;4526612;31;81894;-73
2022/10/11 07:01:31;;;;;;;9.63;6.80;;;;;;;15.70;60.51;100409.63;4526655;31;82307;-73
2022/10/11 07:04:14;;;;;;;13.48;6.32;;;;;;;16.67;59.29;100404.44;4526602;31;78538;-73
2022/10/11 07:06:56;;;;;;;9.52;6.18;;;;;;;16.47;58.13;100407.97;4526269;31;85280;-74
2022/10/11 07:09:39;;;;;;;11.00;6.82;;;;;;;16.98;56.49;100409.97;4526383;31;84687;-73
2022/10/11 07:12:20;;;;;;;10.38;6.20;;;;;;;16.81;56.30;100413.78;4527130;31;28212;-75
2022/10/11 07:15:03;;;;;;;9.88;6.53;;;;;;;16.92;56.83;100417.34;4527845;31;29232;-69
2022/10/11 07:17:45;;;;;;;8.68;6.32;;;;;;;17.23;55.39;100414.56;4526047;31;90804;-75
2022/10/11 07:20:27;;;;;;;10.80;6.87;;;;;;;16.96;55.81;100412.97;4526235;31;87333;-75
2022/10/11 07:23:06;;;;;;;12.20;6.30;;;;;;;17.56;54.31;100412.31;4513630;31;81357;-75
2022/10/11 07:25:46;;;;;;;9.05;6.65;;;;;;;17.32;54.71;100414.81;4526543;31;79695;-74
2022/10/11 07:28:29;;;;;;;9.23;6.12;;;;;;;17.25;55.91;100408.81;4517693;31;80416;-69
2022/10/11 07:31:13;;;;;;;9.45;6.28;;;;;;;17.30;54.40;100414.28;4525301;31;80113;-68
2022/10/11 07:33:55;;;;;;;9.35;5.93;;;;;;;16.77;54.92;100412.66;4526720;31;29046;-74
2022/10/11 07:36:36;;;;;;;9.13;5.82;;;;;;;17.16;55.40;100414.84;4525327;31;80271;-69
2022/10/11 07:39:18;;;;;;;8.45;5.65;;;;;;;16.70;56.19;100414.84;4525245;31;78338;-69
2022/10/11 07:41:58;;;;;;;10.13;6.43;;;;;;;16.95;55.56;100419.56;4523740;31;81684;-71
2022/10/11 07:44:38;;;;;;;8.48;5.72;;;;;;;17.49;53.83;100417.25;4524556;31;83722;-72
2022/10/11 07:47:19;;;;;;;10.85;6.28;;;;;;;17.10;54.45;100417.88;4526345;31;45648;-74
2022/10/11 07:49:58;;;;;;;7.87;5.70;;;;;;;18.20;53.20;100419.72;4526143;31;47916;-76
2022/10/11 07:52:39;;;;;;;8.20;5.47;;;;;;;18.30;54.10;100421.62;4520453;31;207842;-76
2022/10/11 07:55:21;;;;;;;8.35;5.57;;;;;;;17.65;55.90;100418.88;4525236;31;78945;-74
2022/10/11 07:58:02;;;;;;;9.60;6.32;;;;;;;18.97;50.81;100412.91;4523470;31;80572;-74
2022/10/11 08:00:45;;;;;;;8.52;6.12;;;;;;;18.65;52.19;100416.97;4525277;31;82733;-76
2022/10/11 08:03:24;;;;;;;9.43;5.70;;;;;;;18.60;51.84;100414.28;4524483;31;76857;-73
2022/10/11 08:06:08;;;;;;;7.97;5.37;;;;;;;19.24;52.02;100415.12;4508642;31;99552;-75
2022/10/11 08:08:50;;;;;;;8.50;6.00;;;;;;;18.64;52.35;100421.66;4525454;31;81648;-75
2022/10/11 08:11:34;;;;;;;9.32;6.43;;;;;;;19.90;49.21;100423.78;4526572;31;74519;-75
2022/10/11 08:14:16;;;;;;;9.90;6.45;;;;;;;19.47;50.06;100419.81;4526768;31;79145;-74
2022/10/11 08:16:55;;;;;;;8.00;5.80;;;;;;;19.57;50.44;100420.84;4492455;32;81907;-71
2022/10/11 08:19:35;;;;;;;10.52;6.82;;;;;;;19.71;49.56;100418.22;4526293;31;84606;-73
2022/10/11 08:22:14;;;;;;;9.48;6.18;;;;;;;19.40;49.96;100427.63;4512428;31;79914;-70
2022/10/11 08:24:53;;;;;;;9.35;6.35;;;;;;;19.64;50.83;100427.63;4527622;31;34957;-74
2022/10/11 08:27:35;;;;;;;9.57;6.57;;;;;;;19.76;50.83;100429.16;4526255;31;85660;-72
2022/10/11 08:30:17;;;;;;;9.77;6.10;;;;;;;19.54;51.58;100426.94;4526683;31;78010;-70
2022/10/11 08:32:59;;;;;;;9.18;6.37;;;;;;;19.58;50.94;100420.53;4525607;31;90614;-74
2022/10/11 08:35:49;;;;;;;11.45;6.43;;;;;;;19.85;50.36;100424.69;4526464;31;76084;-76
2022/10/11 08:38:29;;;;;;;9.73;6.35;;;;;;;20.10;50.12;100418.00;4526494;31;84221;-77
2022/10/11 08:41:36;;;;;;;10.68;7.40;;;;;;;19.72;51.00;100417.94;4526606;31;79712;-75
2022/10/11 08:44:12;;;;;;;9.00;6.37;;;;;;;19.59;50.96;100424.09;4510159;31;33246;-71
2022/10/11 08:46:42;;;;;;;11.32;7.30;;;;;;;19.74;50.70;100418.47;4513376;31;34701;-73
2022/10/11 08:49:12;;;;;;;10.98;6.62;;;;;;;19.50;51.34;100425.88;4511917;31;34298;-73
2022/10/11 08:51:49;;;;;;;10.85;6.85;;;;;;;19.47;51.78;100425.34;4499092;31;33753;-72
2022/10/11 08:54:20;;;;;;;9.70;6.85;;;;;;;19.77;50.38;100423.37;4511970;31;33526;-69
2022/10/11 08:56:49;;;;;;;8.50;6.37;;;;;;;19.87;50.82;100419.69;4512034;31;34671;-74
2022/10/11 08:59:24;;;;;;;9.50;6.55;;;;;;;20.13;49.92;100416.59;4511703;31;34011;-76
2022/10/11 09:01:53;;;;;;;;;;;;;;;20.96;47.90;100422.53;4513494;31;33757;-76
2022/10/11 09:04:21;;;;;;;9.15;6.50;;;;;;;20.90;47.66;100419.84;4512034;31;34307;-76
2022/10/11 09:06:58;;;;;;;11.65;6.82;;;;;;;21.06;47.01;100423.19;4513085;31;35111;-77
2022/10/11 09:09:48;;;;;;;9.20;6.12;;;;;;;21.04;47.50;100413.56;4513027;31;34258;-79
2022/10/11 09:12:33;;;;;;;9.15;6.47;;;;;;;20.80;49.14;100417.28;4511882;31;34513;-79
2022/10/11 09:15:28;;;;;;;12.50;7.45;;;;;;;20.71;48.98;100423.75;4511805;31;34210;-78
2022/10/11 09:17:58;;;;;;;10.60;6.93;;;;;;;21.00;47.54;100427.16;4511748;31;33984;-77
2022/10/11 09:20:29;;;;;;;10.43;7.78;;;;;;;20.56;51.38;100422.88;4508961;31;34030;-76
2022/10/11 09:23:20;;;;;;;11.70;7.05;;;;;;;21.04;49.82;100424.59;4495847;32;33176;-78
2022/10/11 09:26:06;;;;;;;13.15;7.57;;;;;;;20.82;48.81;100425.22;4495857;31;34211;-77
2022/10/11 09:28:49;;;;;;;11.18;7.70;;;;;;;20.47;50.84;100424.63;4495983;32;33928;-77
2022/10/11 09:31:17;;;;;;;12.23;7.70;;;;;;;20.52;50.71;100427.34;4495821;32;33977;-76
2022/10/11 09:33:50;;;;;;;12.18;8.32;;;;;;;20.56;51.32;100438.56;4497080;32;33899;-76
2022/10/11 09:36:29;;;;;;;12.52;8.77;;;;;;;20.69;50.95;100435.94;4494773;32;33382;-73
2022/10/11 09:39:04;;;;;;;14.18;9.20;;;;;;;20.67;51.79;100431.84;4482736;32;34060;-71
2022/10/11 09:41:52;;;;;;;;;;;;;;;20.69;51.72;100429.56;4495984;32;34096;-75
2022/10/11 09:44:25;;;;;;;13.45;8.48;;;;;;;21.25;49.46;100427.81;4497092;32;34312;-72
2022/10/11 09:46:54;;;;;;;13.80;8.40;;;;;;;21.13;50.09;100433.81;4495850;32;33511;-72
2022/10/11 09:49:29;;;;;;;16.05;8.57;;;;;;;21.04;49.85;100438.41;4495755;31;34676;-72
2022/10/11 09:52:00;;;;;;;12.20;8.75;;;;;;;20.44;51.67;100433.53;4487334;31;34639;-71
2022/10/11 09:54:57;;;;;;;12.45;8.77;;;;;;;20.52;52.36;100430.09;4485248;32;33803;-72
2022/10/11 09:57:31;;;;;;;15.20;8.95;;;;;;;20.90;50.59;100430.06;4484783;32;34406;-72
2022/10/11 10:00:18;;;;;;;15.02;8.25;;;;;;;21.03;50.27;100437.56;4484797;32;34833;-70
2022/10/11 10:02:48;;;;;;;14.07;9.00;;;;;;;21.32;49.51;100431.00;4486139;32;34892;-70
2022/10/11 10:05:27;;;;;;;13.10;8.68;;;;;;;20.78;50.96;100438.00;4484880;32;33482;-71
2022/10/11 10:08:21;;;;;;;11.43;8.13;;;;;;;20.81;51.18;100429.12;4484990;32;34322;-69
2022/10/11 10:11:01;;;;;;;11.30;7.78;;;;;;;20.51;54.03;100430.37;4484911;32;34773;-70
2022/10/11 10:13:55;;;;;;;9.95;7.43;;;;;;;21.38;48.41;100427.03;4486074;32;34197;-74
2022/10/11 10:16:25;;;;;;;15.27;8.90;;;;;;;21.36;48.80;100426.53;4484950;32;34560;-69
2022/10/11 10:18:56;;;;;;;13.77;8.52;;;;;;;21.34;49.34;100420.47;4486055;32;34303;-73
2022/10/11 10:21:27;;;;;;;12.02;8.25;;;;;;;21.98;46.85;100423.37;4484411;32;34046;-77
2022/10/11 10:23:56;;;;;;;11.80;8.43;;;;;;;21.67;48.08;100424.00;4484933;32;34309;-77
2022/10/11 10:26:25;;;;;;;11.27;7.93;;;;;;;22.03;47.54;100422.44;4484770;32;33571;-76
2022/10/11 10:29:00;;;;;;;12.48;8.93;;;;;;;21.88;47.72;100418.88;4484930;32;32666;-82
2022/10/11 10:31:39;;;;;;;13.73;8.18;;;;;;;21.63;47.70;100422.16;4485915;32;33861;-77
2022/10/11 10:34:32;;;;;;;12.07;8.52;;;;;;;21.60;46.59;100423.59;4485043;32;34324;-81
2022/10/11 10:37:16;;;;;;;12.60;8.40;;;;;;;21.21;47.81;100419.34;4484933;32;34582;-83
2022/10/11 10:39:51;;;;;;;10.95;8.38;;;;;;;20.28;50.17;100419.97;4485657;32;33397;-78
2022/10/11 10:42:19;;;;;;;13.75;8.50;;;;;;;20.52;49.97;100421.81;4484658;32;34127;-77
2022/10/11 10:44:53;;;;;;;11.60;8.25;;;;;;;20.73;49.27;100429.78;4484773;32;34262;-78
2022/10/11 10:47:29;;;;;;;15.45;9.50;;;;;;;20.75;49.31;100425.62;4484729;32;34716;-78
2022/10/11 10:50:03;;;;;;;12.48;9.10;;;;;;;20.65;49.11;100420.28;4485844;32;34276;-78
2022/10/11 10:52:59;;;;;;;14.30;8.43;;;;;;;20.63;49.93;100412.31;4485844;32;34194;-78
2022/10/11 10:55:41;;;;;;;12.80;9.50;;;;;;;20.62;49.83;100418.91;4484748;32;34335;-78
2022/10/11 10:58:40;;;;;;;12.25;8.85;;;;;;;20.45;49.89;100418.59;4484316;32;33681;-77
2022/10/11 11:01:14;;;;;;;11.70;8.35;;;;;;;20.16;51.37;100411.31;4471706;32;32909;-78
2022/10/11 11:03:46;;;;;;;13.48;8.68;;;;;;;20.60;49.24;100417.59;4483691;32;34117;-77
2022/10/11 11:06:27;;;;;;;12.80;8.15;;;;;;;20.63;51.14;100412.31;4484602;32;35166;-77
2022/10/11 11:09:29;;;;;;;13.88;9.05;;;;;;;21.18;47.88;100410.84;4472245;32;32571;-78
2022/10/11 11:11:56;;;;;;;13.50;9.32;;;;;;;21.28;47.82;100407.91;4485578;32;34314;-82
2022/10/11 11:14:32;;;;;;;13.68;8.98;;;;;;;21.49;46.80;100408.38;4486126;32;34108;-78
2022/10/11 11:17:17;;;;;;;15.60;8.52;;;;;;;21.27;48.38;100409.84;4482680;32;34312;-71
2022/10/11 11:19:57;;;;;;;12.05;8.50;;;;;;;21.85;47.77;100407.63;4485651;32;34499;-78
2022/10/11 11:22:35;;;;;;;12.93;8.52;;;;;;;22.23;46.08;100412.94;4484344;32;34171;-76
2022/10/11 11:25:21;;;;;;;14.15;9.57;;;;;;;22.26;46.44;100415.06;4484494;32;33892;-72
2022/10/11 11:28:04;;;;;;;12.10;8.32;;;;;;;22.67;44.21;100406.63;4485374;32;33899;-73
2022/10/11 11:30:46;;;;;;;10.45;7.87;;;;;;;22.59;45.59;100409.31;4485358;32;33850;-76
2022/10/11 11:33:54;;;;;;;12.50;8.30;;;;;;;22.80;44.26;100410.47;4484234;32;33212;-76
2022/10/11 11:36:44;;;;;;;12.70;8.48;;;;;;;22.81;45.24;100400.22;4484034;32;34691;-69
2022/10/11 11:39:19;;;;;;;12.75;9.10;;;;;;;22.57;45.53;100401.34;4483897;32;34048;-70
2022/10/11 11:41:52;;;;;;;12.75;9.05;;;;;;;23.26;43.04;100406.53;4483810;32;34436;-77
2022/10/11 11:44:30;;;;;;;13.52;8.63;;;;;;;23.31;42.50;100394.50;4484067;32;33508;-75
2022/10/11 11:47:02;;;;;;;13.07;8.00;;;;;;;23.60;42.48;100395.94;4484735;32;34358;-78
2022/10/11 11:49:48;;;;;;;11.60;8.07;;;;;;;23.55;43.04;100389.37;4484277;32;34844;-78
2022/10/11 11:52:32;;;;;;;10.68;7.60;;;;;;;23.43;43.49;100393.91;4485574;32;33937;-72
2022/10/11 11:55:32;;;;;;;12.95;8.60;;;;;;;23.86;42.61;100388.53;4484153;32;33233;-73
2022/10/11 11:58:03;;;;;;;11.60;8.20;;;;;;;23.11;43.54;100385.63;4484277;32;34052;-76
2022/10/11 12:00:52;;;;;;;12.82;8.40;;;;;;;23.50;42.22;100391.50;4485353;32;35071;-72
2022/10/11 12:03:23;;;;;;;11.77;7.82;;;;;;;23.11;43.93;100387.59;4484101;32;34255;-70
2022/10/11 12:06:25;;;;;;;10.70;7.78;;;;;;;23.44;43.76;100390.00;4484207;32;33517;-72
2022/10/11 12:09:00;;;;;;;12.50;8.18;;;;;;;23.61;42.73;100384.53;4472652;32;33969;-78
2022/10/11 12:11:57;;;;;;;12.57;8.10;;;;;;;22.55;45.47;100387.03;4468220;32;34045;-78
2022/10/11 12:14:31;;;;;;;10.43;7.80;;;;;;;23.00;46.26;100375.97;4467987;32;34644;-74
2022/10/11 12:17:11;;;;;;;11.25;8.27;;;;;;;22.89;45.30;100378.16;4469048;32;34455;-74
2022/10/11 12:19:41;;;;;;;14.43;9.30;;;;;;;23.15;44.78;100374.72;4482209;32;33695;-79
2022/10/11 12:22:41;;;;;;;12.57;9.10;;;;;;;22.30;46.14;100380.13;4470965;32;33556;-77
2022/10/11 12:25:09;;;;;;;11.63;7.93;;;;;;;21.90;45.94;100377.16;4471177;32;32626;-76
2022/10/11 12:27:52;;;;;;;12.07;8.38;;;;;;;23.01;46.26;100377.59;4485027;32;33494;-75